createdAt,value
2022-09-09T00:00:39.306Z,98.55
2022-09-09T00:01:39.298Z,98.41
2022-09-09T00:02:39.463Z,98.55
2022-09-09T00:03:39.425Z,97.94
2022-09-09T00:04:39.274Z,98.55
2022-09-09T00:05:39.268Z,98.55
2022-09-09T00:06:39.274Z,98.45
2022-09-09T00:07:39.276Z,98.50
2022-09-09T00:08:39.241Z,98.39
2022-09-09T00:09:39.235Z,98.19
2022-09-09T00:10:39.272Z,98.60
2022-09-09T00:11:39.216Z,98.39
2022-09-09T00:12:39.248Z,98.70
2022-09-09T00:13:39.211Z,98.70
2022-09-09T00:14:39.191Z,98.65
2022-09-09T00:15:39.208Z,98.54
2022-09-09T00:16:39.189Z,98.80
2022-09-09T00:17:39.325Z,99.11
2022-09-09T00:18:39.157Z,98.44
2022-09-09T00:19:39.159Z,98.60
2022-09-09T00:20:39.143Z,98.65
2022-09-09T00:21:39.133Z,98.44
2022-09-09T00:22:39.156Z,98.65
2022-09-09T00:23:39.130Z,99.16
2022-09-09T00:24:39.114Z,98.65
2022-09-09T00:25:39.104Z,98.85
2022-09-09T00:26:39.091Z,98.85
2022-09-09T00:27:39.126Z,99.20
2022-09-09T00:28:39.096Z,98.75
2022-09-09T00:29:39.070Z,99.05
2022-09-09T00:30:39.093Z,99.30
2022-09-09T00:31:39.056Z,98.75
2022-09-09T00:32:39.076Z,98.95
2022-09-09T00:33:39.044Z,99.26
2022-09-09T00:34:39.035Z,99.16
2022-09-09T00:35:39.037Z,99.16
2022-09-09T00:36:39.015Z,99.20
2022-09-09T00:37:39.011Z,99.30
2022-09-09T00:38:39.026Z,99.91
2022-09-09T00:39:39.032Z,99.91
2022-09-09T00:40:38.989Z,99.91
2022-09-09T00:41:38.980Z,99.91
2022-09-09T00:42:38.966Z,99.99
2022-09-09T00:43:38.988Z,99.99
2022-09-09T00:44:38.955Z,99.99
2022-09-09T00:45:38.946Z,99.99
2022-09-09T00:46:38.981Z,99.99
2022-09-09T00:47:38.993Z,99.99
2022-09-09T00:48:38.950Z,99.99
2022-09-09T00:49:38.917Z,99.99
2022-09-09T00:50:38.909Z,99.99
2022-09-09T00:51:38.894Z,99.99
2022-09-09T00:52:38.895Z,99.99
2022-09-09T00:53:38.907Z,99.99
2022-09-09T00:54:38.875Z,99.99
2022-09-09T00:55:38.866Z,99.99
2022-09-09T00:56:38.861Z,99.99
2022-09-09T00:57:38.853Z,99.99
2022-09-09T00:58:38.937Z,99.99
2022-09-09T00:59:38.833Z,99.99
2022-09-09T01:00:38.827Z,99.99
2022-09-09T01:01:38.872Z,99.99
2022-09-09T01:02:38.896Z,99.99
2022-09-09T01:03:38.824Z,99.99
2022-09-09T01:04:38.795Z,99.99
2022-09-09T01:05:38.788Z,99.99
2022-09-09T01:06:38.778Z,99.99
2022-09-09T01:07:38.773Z,99.99
2022-09-09T01:08:38.789Z,99.99
2022-09-09T01:09:38.759Z,99.99
2022-09-09T01:10:38.752Z,99.99
2022-09-09T01:11:38.756Z,99.99
2022-09-09T01:12:38.735Z,99.99
2022-09-09T01:13:38.752Z,99.99
2022-09-09T01:14:38.740Z,99.99
2022-09-09T01:15:38.714Z,99.99
2022-09-09T01:16:38.738Z,99.99
2022-09-09T01:17:38.694Z,99.99
2022-09-09T01:18:38.715Z,99.99
2022-09-09T01:19:38.680Z,99.99
2022-09-09T01:20:38.673Z,99.99
2022-09-09T01:21:38.665Z,99.99
2022-09-09T01:22:38.686Z,99.99
2022-09-09T01:23:38.675Z,99.99
2022-09-09T01:24:38.680Z,99.99
2022-09-09T01:25:38.638Z,99.99
2022-09-09T01:26:38.622Z,99.99
2022-09-09T01:27:38.618Z,99.98
2022-09-09T01:28:38.638Z,99.99
2022-09-09T01:29:38.602Z,99.77
2022-09-09T01:30:38.628Z,99.47
2022-09-09T01:31:38.585Z,99.06
2022-09-09T01:32:38.577Z,99.27
2022-09-09T01:33:38.594Z,98.75
2022-09-09T01:34:38.566Z,99.06
2022-09-09T01:35:38.563Z,99.27
2022-09-09T01:36:38.552Z,98.86
2022-09-09T01:37:38.542Z,98.55
2022-09-09T01:38:38.557Z,98.66
2022-09-09T01:39:38.581Z,98.75
2022-09-09T01:40:38.519Z,98.86
2022-09-09T01:41:38.511Z,99.06
2022-09-09T01:42:38.499Z,98.35
2022-09-09T01:43:38.527Z,98.66
2022-09-09T01:44:38.486Z,98.86
2022-09-09T01:45:38.502Z,98.66
2022-09-09T01:46:38.469Z,98.75
2022-09-09T01:47:38.464Z,98.66
2022-09-09T01:48:38.481Z,98.66
2022-09-09T01:49:38.444Z,98.66
2022-09-09T01:50:38.441Z,98.96
2022-09-09T01:51:38.452Z,98.75
2022-09-09T01:52:38.425Z,98.66
2022-09-09T01:53:38.418Z,98.45
2022-09-09T01:54:38.436Z,98.75
2022-09-09T01:55:38.402Z,98.70
2022-09-09T01:56:38.395Z,98.35
2022-09-09T01:57:38.381Z,98.96
2022-09-09T01:58:39.379Z,99.06
2022-09-09T01:59:38.387Z,99.16
2022-09-09T02:00:39.366Z,98.96
2022-09-09T02:01:38.393Z,99.16
2022-09-09T02:02:38.399Z,98.55
2022-09-09T02:03:38.343Z,98.86
2022-09-09T02:04:38.358Z,98.35
2022-09-09T02:05:38.330Z,98.75
2022-09-09T02:06:38.319Z,98.96
2022-09-09T02:07:38.334Z,98.66
2022-09-09T02:08:38.328Z,98.66
2022-09-09T02:09:38.296Z,98.35
2022-09-09T02:10:38.292Z,98.55
2022-09-09T02:11:38.289Z,98.55
2022-09-09T02:12:38.268Z,98.55
2022-09-09T02:13:38.284Z,98.35
2022-09-09T02:14:38.256Z,98.45
2022-09-09T02:15:38.244Z,98.55
2022-09-09T02:16:38.291Z,98.55
2022-09-09T02:17:38.231Z,98.55
2022-09-09T02:18:38.247Z,98.35
2022-09-09T02:19:38.214Z,98.30
2022-09-09T02:20:38.205Z,98.55
2022-09-09T02:21:38.203Z,98.55
2022-09-09T02:22:38.193Z,98.50
2022-09-09T02:23:38.215Z,99.02
2022-09-09T02:24:38.173Z,98.96
2022-09-09T02:25:38.165Z,99.16
2022-09-09T02:26:38.162Z,99.06
2022-09-09T02:27:38.153Z,98.75
2022-09-09T02:28:38.187Z,98.75
2022-09-09T02:29:38.156Z,98.91
2022-09-09T02:30:38.183Z,99.11
2022-09-09T02:31:38.118Z,98.81
2022-09-09T02:32:38.124Z,98.41
2022-09-09T02:33:38.101Z,99.11
2022-09-09T02:34:38.118Z,98.50
2022-09-09T02:35:38.087Z,98.50
2022-09-09T02:36:38.077Z,98.61
2022-09-09T02:37:38.069Z,98.91
2022-09-09T02:38:38.062Z,98.71
2022-09-09T02:39:38.160Z,98.66
2022-09-09T02:40:38.049Z,98.36
2022-09-09T02:41:38.035Z,98.66
2022-09-09T02:42:38.029Z,98.46
2022-09-09T02:43:38.030Z,98.46
2022-09-09T02:44:38.053Z,98.46
2022-09-09T02:45:38.069Z,98.36
2022-09-09T02:46:38.001Z,98.46
2022-09-09T02:47:37.996Z,98.52
2022-09-09T02:48:37.979Z,98.46
2022-09-09T02:49:37.997Z,98.26
2022-09-09T02:50:37.971Z,98.46
2022-09-09T02:51:37.958Z,98.26
2022-09-09T02:52:37.960Z,98.46
2022-09-09T02:53:37.946Z,98.46
2022-09-09T02:54:37.972Z,98.62
2022-09-09T02:55:37.925Z,98.66
2022-09-09T02:56:37.922Z,98.66
2022-09-09T02:57:37.911Z,98.41
2022-09-09T02:58:37.908Z,97.96
2022-09-09T02:59:37.928Z,97.55
2022-09-09T03:00:37.888Z,98.26
2022-09-09T03:01:37.914Z,98.77
2022-09-09T03:02:37.965Z,98.62
2022-09-09T03:03:37.865Z,98.46
2022-09-09T03:04:37.883Z,98.82
2022-09-09T03:05:37.847Z,98.77
2022-09-09T03:06:37.846Z,98.62
2022-09-09T03:07:37.842Z,98.32
2022-09-09T03:08:37.833Z,98.21
2022-09-09T03:09:37.853Z,98.16
2022-09-09T03:10:37.813Z,97.96
2022-09-09T03:11:37.804Z,98.16
2022-09-09T03:12:37.806Z,98.32
2022-09-09T03:13:37.797Z,97.96
2022-09-09T03:14:37.788Z,97.85
2022-09-09T03:15:37.800Z,97.85
2022-09-09T03:16:37.815Z,97.96
2022-09-09T03:17:37.761Z,97.75
2022-09-09T03:18:38.751Z,97.75
2022-09-09T03:19:37.746Z,97.80
2022-09-09T03:20:37.772Z,97.96
2022-09-09T03:21:37.741Z,98.20
2022-09-09T03:22:37.720Z,97.89
2022-09-09T03:23:37.713Z,98.10
2022-09-09T03:24:37.701Z,97.80
2022-09-09T03:25:37.717Z,97.89
2022-09-09T03:26:37.697Z,98.50
2022-09-09T03:27:37.682Z,97.94
2022-09-09T03:28:37.824Z,98.45
2022-09-09T03:29:37.665Z,98.35
2022-09-09T03:30:37.686Z,98.35
2022-09-09T03:31:37.706Z,98.55
2022-09-09T03:32:37.641Z,97.84
2022-09-09T03:33:37.637Z,98.14
2022-09-09T03:34:37.623Z,98.55
2022-09-09T03:35:37.641Z,98.45
2022-09-09T03:36:37.606Z,98.45
2022-09-09T03:37:37.605Z,98.75
2022-09-09T03:38:37.765Z,98.96
2022-09-09T03:39:37.673Z,98.75
2022-09-09T03:40:37.597Z,99.01
2022-09-09T03:41:37.567Z,98.96
2022-09-09T03:42:37.559Z,99.77
2022-09-09T03:43:37.551Z,99.88
2022-09-09T03:44:37.542Z,99.57
2022-09-09T03:45:37.597Z,99.88
2022-09-09T03:46:37.530Z,99.77
2022-09-09T03:47:37.531Z,99.99
2022-09-09T03:48:37.714Z,99.99
2022-09-09T03:49:37.511Z,99.99
2022-09-09T03:50:37.530Z,99.99
2022-09-09T03:51:37.495Z,99.99
2022-09-09T03:52:37.481Z,99.99
2022-09-09T03:53:37.487Z,99.99
2022-09-09T03:54:37.477Z,99.99
2022-09-09T03:55:37.483Z,99.99
2022-09-09T03:56:37.464Z,99.99
2022-09-09T03:57:37.447Z,99.99
2022-09-09T03:58:37.592Z,99.99
2022-09-09T03:59:37.424Z,99.99
2022-09-09T04:00:37.552Z,99.99
2022-09-09T04:01:37.414Z,99.99
2022-09-09T04:02:37.454Z,99.72
2022-09-09T04:03:37.395Z,99.82
2022-09-09T04:04:37.387Z,99.41
2022-09-09T04:05:37.400Z,99.41
2022-09-09T04:06:37.368Z,99.99
2022-09-09T04:07:37.354Z,99.99
2022-09-09T04:08:37.481Z,99.99
2022-09-09T04:09:37.345Z,99.92
2022-09-09T04:10:37.358Z,99.99
2022-09-09T04:11:37.330Z,99.99
2022-09-09T04:12:37.322Z,99.99
2022-09-09T04:13:37.315Z,99.99
2022-09-09T04:14:37.304Z,99.99
2022-09-09T04:15:37.325Z,99.99
2022-09-09T04:16:37.320Z,99.99
2022-09-09T04:17:37.279Z,99.99
2022-09-09T04:18:37.332Z,99.99
2022-09-09T04:19:37.258Z,99.99
2022-09-09T04:20:37.278Z,99.99
2022-09-09T04:21:37.249Z,99.99
2022-09-09T04:22:37.239Z,99.99
2022-09-09T04:23:37.236Z,99.99
2022-09-09T04:24:37.225Z,99.99
2022-09-09T04:25:37.249Z,99.99
2022-09-09T04:26:37.207Z,99.99
2022-09-09T04:27:37.197Z,99.99
2022-09-09T04:28:37.295Z,99.99
2022-09-09T04:29:37.180Z,99.99
2022-09-09T04:30:37.238Z,99.99
2022-09-09T04:31:37.217Z,99.99
2022-09-09T04:32:37.157Z,99.99
2022-09-09T04:33:40.299Z,99.99
2022-09-09T04:34:38.146Z,99.99
2022-09-09T04:35:37.154Z,99.99
2022-09-09T04:36:37.129Z,99.99
2022-09-09T04:37:37.115Z,99.99
2022-09-09T04:38:37.289Z,99.99
2022-09-09T04:39:37.128Z,99.99
2022-09-09T04:40:37.114Z,99.99
2022-09-09T04:41:37.081Z,99.99
2022-09-09T04:42:37.078Z,99.99
2022-09-09T04:43:37.065Z,99.99
2022-09-09T04:44:37.061Z,99.99
2022-09-09T04:45:37.094Z,99.99
2022-09-09T04:46:37.046Z,99.99
2022-09-09T04:47:37.036Z,99.99
2022-09-09T04:48:37.078Z,99.99
2022-09-09T04:49:37.021Z,99.99
2022-09-09T04:50:37.033Z,99.99
2022-09-09T04:51:37.010Z,99.99
2022-09-09T04:52:36.991Z,99.99
2022-09-09T04:53:37.027Z,99.99
2022-09-09T04:54:36.979Z,99.99
2022-09-09T04:55:36.996Z,99.99
2022-09-09T04:56:36.967Z,99.99
2022-09-09T04:57:36.952Z,99.99
2022-09-09T04:58:37.122Z,99.99
2022-09-09T04:59:36.940Z,99.99
2022-09-09T05:00:37.174Z,99.99
2022-09-09T05:01:36.919Z,99.99
2022-09-09T05:02:36.940Z,99.99
2022-09-09T05:03:36.898Z,99.99
2022-09-09T05:04:36.902Z,99.99
2022-09-09T05:05:36.918Z,99.99
2022-09-09T05:06:36.878Z,99.99
2022-09-09T05:07:36.883Z,99.99
2022-09-09T05:08:37.072Z,99.99
2022-09-09T05:09:36.895Z,99.99
2022-09-09T05:10:36.876Z,99.99
2022-09-09T05:11:36.835Z,99.99
2022-09-09T05:12:36.833Z,99.99
2022-09-09T05:13:41.260Z,99.99
2022-09-09T05:14:37.809Z,99.99
2022-09-09T05:15:36.821Z,99.99
2022-09-09T05:16:36.888Z,99.99
2022-09-09T05:17:36.787Z,99.99
2022-09-09T05:18:36.851Z,99.99
2022-09-09T05:19:36.802Z,99.99
2022-09-09T05:20:36.788Z,99.99
2022-09-09T05:21:36.757Z,99.99
2022-09-09T05:22:36.748Z,99.99
2022-09-09T05:23:36.737Z,99.99
2022-09-09T05:24:36.739Z,99.99
2022-09-09T05:25:36.744Z,99.99
2022-09-09T05:26:36.704Z,99.98
2022-09-09T05:27:37.708Z,99.93
2022-09-09T05:28:36.877Z,99.67
2022-09-09T05:29:36.694Z,99.83
2022-09-09T05:30:36.707Z,99.93
2022-09-09T05:31:36.703Z,99.32
2022-09-09T05:32:36.666Z,99.98
2022-09-09T05:33:36.663Z,99.83
2022-09-09T05:34:36.653Z,99.73
2022-09-09T05:35:36.676Z,99.73
2022-09-09T05:36:36.648Z,99.32
2022-09-09T05:37:36.633Z,99.02
2022-09-09T05:38:36.626Z,98.81
2022-09-09T05:39:36.662Z,98.66
2022-09-09T05:40:36.636Z,99.07
2022-09-09T05:41:36.604Z,98.82
2022-09-09T05:42:36.591Z,99.02
2022-09-09T05:43:36.579Z,98.77
2022-09-09T05:44:36.575Z,98.37
2022-09-09T05:45:36.613Z,97.91
2022-09-09T05:46:36.625Z,97.66
2022-09-09T05:47:36.551Z,97.91
2022-09-09T05:48:36.670Z,97.91
2022-09-09T05:49:36.531Z,98.01
2022-09-09T05:50:36.553Z,97.15
2022-09-09T05:51:36.527Z,97.05
2022-09-09T05:52:36.509Z,96.84
2022-09-09T05:53:36.505Z,96.95
2022-09-09T05:54:36.500Z,96.69
2022-09-09T05:55:36.520Z,96.89
2022-09-09T05:56:36.480Z,96.99
2022-09-09T05:57:36.472Z,96.38
2022-09-09T05:58:36.576Z,96.18
2022-09-09T05:59:36.459Z,96.89
2022-09-09T06:00:36.448Z,96.84
2022-09-09T06:01:36.503Z,96.03
2022-09-09T06:02:36.552Z,95.95
2022-09-09T06:03:36.425Z,92.87
2022-09-09T06:04:36.417Z,92.06
2022-09-09T06:05:36.435Z,91.66
2022-09-09T06:06:36.401Z,91.92
2022-09-09T06:07:36.385Z,91.61
2022-09-09T06:08:37.562Z,91.57
2022-09-09T06:09:36.387Z,91.18
2022-09-09T06:10:36.395Z,89.09
2022-09-09T06:11:36.359Z,83.81
2022-09-09T06:12:36.362Z,79.69
2022-09-09T06:13:36.347Z,77.83
2022-09-09T06:14:36.342Z,78.80
2022-09-09T06:15:36.371Z,79.48
2022-09-09T06:16:36.388Z,80.69
2022-09-09T06:17:36.317Z,80.13
2022-09-09T06:18:36.426Z,77.59
2022-09-09T06:19:36.303Z,77.83
2022-09-09T06:20:36.298Z,77.19
2022-09-09T06:21:36.321Z,76.01
2022-09-09T06:22:36.280Z,73.53
2022-09-09T06:23:36.275Z,71.36
2022-09-09T06:24:36.271Z,68.73
2022-09-09T06:25:36.267Z,66.93
2022-09-09T06:26:36.274Z,68.13
2022-09-09T06:27:36.239Z,67.53
2022-09-09T06:28:36.445Z,67.30
2022-09-09T06:29:36.241Z,66.11
2022-09-09T06:30:36.222Z,63.92
2022-09-09T06:31:36.305Z,62.50
2022-09-09T06:32:36.210Z,61.88
2022-09-09T06:33:36.204Z,61.88
2022-09-09T06:34:36.194Z,62.02
2022-09-09T06:35:36.187Z,60.89
2022-09-09T06:36:36.200Z,60.72
2022-09-09T06:37:36.171Z,62.63
2022-09-09T06:38:36.295Z,64.09
2022-09-09T06:39:36.231Z,64.97
2022-09-09T06:40:36.153Z,67.13
2022-09-09T06:41:36.170Z,68.16
2022-09-09T06:42:36.227Z,68.06
2022-09-09T06:43:36.129Z,67.90
2022-09-09T06:44:36.120Z,67.24
2022-09-09T06:45:36.116Z,66.27
2022-09-09T06:46:36.179Z,64.52
2022-09-09T06:47:36.103Z,62.91
2022-09-09T06:48:36.219Z,62.18
2022-09-09T06:49:36.091Z,62.24
2022-09-09T06:50:36.075Z,63.89
2022-09-09T06:51:36.096Z,65.15
2022-09-09T06:52:36.066Z,66.34
2022-09-09T06:53:36.069Z,66.83
2022-09-09T06:54:36.087Z,66.44
2022-09-09T06:55:36.270Z,66.11
2022-09-09T06:56:36.057Z,65.68
2022-09-09T06:57:37.919Z,64.85
2022-09-09T06:58:37.125Z,64.72
2022-09-09T06:59:36.005Z,63.54
2022-09-09T07:00:36.043Z,61.33
2022-09-09T07:01:36.067Z,60.08
2022-09-09T07:02:35.982Z,58.90
2022-09-09T07:03:35.974Z,58.45
2022-09-09T07:04:35.968Z,56.88
2022-09-09T07:05:35.967Z,56.19
2022-09-09T07:06:35.976Z,55.94
2022-09-09T07:07:35.943Z,55.36
2022-09-09T07:08:36.135Z,53.54
2022-09-09T07:09:35.935Z,52.43
2022-09-09T07:10:35.922Z,52.50
2022-09-09T07:11:35.948Z,52.18
2022-09-09T07:12:35.907Z,50.88
2022-09-09T07:13:35.898Z,51.10
2022-09-09T07:14:35.896Z,52.61
2022-09-09T07:15:35.885Z,55.79
2022-09-09T07:16:35.973Z,57.58
2022-09-09T07:17:35.873Z,58.63
2022-09-09T07:18:35.989Z,60.53
2022-09-09T07:19:35.855Z,61.91
2022-09-09T07:20:35.850Z,63.76
2022-09-09T07:21:35.844Z,64.31
2022-09-09T07:22:35.855Z,65.64
2022-09-09T07:23:36.482Z,65.94
2022-09-09T07:24:36.822Z,66.67
2022-09-09T07:25:35.817Z,67.40
2022-09-09T07:26:35.818Z,67.93
2022-09-09T07:27:35.828Z,66.94
2022-09-09T07:28:35.810Z,67.40
2022-09-09T07:29:35.798Z,68.36
2022-09-09T07:30:35.785Z,69.62
2022-09-09T07:31:35.887Z,71.42
2022-09-09T07:32:35.794Z,71.86
2022-09-09T07:33:35.792Z,73.19
2022-09-09T07:34:35.776Z,73.43
2022-09-09T07:35:35.769Z,74.67
2022-09-09T07:36:35.758Z,75.41
2022-09-09T07:37:35.780Z,76.11
2022-09-09T07:38:35.772Z,76.95
2022-09-09T07:39:35.764Z,76.45
2022-09-09T07:40:35.726Z,77.19
2022-09-09T07:41:35.720Z,77.19
2022-09-09T07:42:35.719Z,77.69
2022-09-09T07:43:35.688Z,77.89
2022-09-09T07:44:35.686Z,77.35
2022-09-09T07:45:35.670Z,77.65
2022-09-09T07:46:35.700Z,77.55
2022-09-09T07:47:35.678Z,77.21
2022-09-09T07:48:35.683Z,76.91
2022-09-09T07:49:35.640Z,75.97
2022-09-09T07:50:35.633Z,74.84
2022-09-09T07:51:35.627Z,75.13
2022-09-09T07:52:35.642Z,74.30
2022-09-09T07:53:35.686Z,75.04
2022-09-09T07:54:35.604Z,75.23
2022-09-09T07:55:35.599Z,74.23
2022-09-09T07:56:35.611Z,74.73
2022-09-09T07:57:35.580Z,75.43
2022-09-09T07:58:38.434Z,76.07
2022-09-09T07:59:36.572Z,76.47
2022-09-09T08:00:35.563Z,76.61
2022-09-09T08:01:35.598Z,76.81
2022-09-09T08:02:35.566Z,77.17
2022-09-09T08:03:35.710Z,77.14
2022-09-09T08:04:35.530Z,76.90
2022-09-09T08:05:35.520Z,75.96
2022-09-09T08:06:35.512Z,76.00
2022-09-09T08:07:35.530Z,76.46
2022-09-09T08:08:35.499Z,75.56
2022-09-09T08:09:35.491Z,75.23
2022-09-09T08:10:35.482Z,76.13
2022-09-09T08:11:38.803Z,75.52
2022-09-09T08:12:36.506Z,74.43
2022-09-09T08:13:35.460Z,75.63
2022-09-09T08:14:35.483Z,76.43
2022-09-09T08:15:35.626Z,77.93
2022-09-09T08:16:35.526Z,77.59
2022-09-09T08:17:35.454Z,75.89
2022-09-09T08:18:35.418Z,73.05
2022-09-09T08:19:35.410Z,70.72
2022-09-09T08:20:35.406Z,69.06
2022-09-09T08:21:35.399Z,68.33
2022-09-09T08:22:35.417Z,69.16
2022-09-09T08:23:35.451Z,67.34
2022-09-09T08:24:35.373Z,69.13
2022-09-09T08:25:35.370Z,68.16
2022-09-09T08:26:35.363Z,67.74
2022-09-09T08:27:35.393Z,69.59
2022-09-09T08:28:35.342Z,66.18
2022-09-09T08:29:35.336Z,63.31
2022-09-09T08:30:35.328Z,61.96
2022-09-09T08:31:35.324Z,61.80
2022-09-09T08:32:35.348Z,59.97
2022-09-09T08:33:35.359Z,59.15
2022-09-09T08:34:35.305Z,59.02
2022-09-09T08:35:35.294Z,58.23
2022-09-09T08:36:35.290Z,58.92
2022-09-09T08:37:35.306Z,57.88
2022-09-09T08:38:35.275Z,58.86
2022-09-09T08:39:35.318Z,58.18
2022-09-09T08:40:35.262Z,60.61
2022-09-09T08:41:35.273Z,60.57
2022-09-09T08:42:35.271Z,61.56
2022-09-09T08:43:35.272Z,60.31
2022-09-09T08:44:35.232Z,60.48
2022-09-09T08:45:35.226Z,60.75
2022-09-09T08:46:35.290Z,59.95
2022-09-09T08:47:35.236Z,62.02
2022-09-09T08:48:35.265Z,61.86
2022-09-09T08:49:35.183Z,62.75
2022-09-09T08:50:36.191Z,62.05
2022-09-09T08:51:35.181Z,62.08
2022-09-09T08:52:35.202Z,63.76
2022-09-09T08:53:35.165Z,65.25
2022-09-09T08:54:51.120Z,64.52
2022-09-09T08:55:37.157Z,66.47
2022-09-09T08:56:35.143Z,68.13
2022-09-09T08:57:35.162Z,67.86
2022-09-09T08:58:35.185Z,68.00
2022-09-09T08:59:35.126Z,69.46
2022-09-09T09:00:35.113Z,68.13
2022-09-09T09:01:35.142Z,68.13
2022-09-09T09:02:35.123Z,67.40
2022-09-09T09:03:35.096Z,67.93
2022-09-09T09:04:35.136Z,67.24
2022-09-09T09:05:35.080Z,68.13
2022-09-09T09:06:35.077Z,68.86
2022-09-09T09:07:35.091Z,69.56
2022-09-09T09:08:35.087Z,69.13
2022-09-09T09:09:35.053Z,67.86
2022-09-09T09:10:42.230Z,67.90
2022-09-09T09:11:37.039Z,66.41
2022-09-09T09:12:35.057Z,66.14
2022-09-09T09:13:35.027Z,66.01
2022-09-09T09:14:35.042Z,65.52
2022-09-09T09:15:35.069Z,64.49
2022-09-09T09:16:34.997Z,64.59
2022-09-09T09:17:35.013Z,64.98
2022-09-09T09:18:35.077Z,65.39
2022-09-09T09:19:34.981Z,65.91
2022-09-09T09:20:34.966Z,65.75
2022-09-09T09:21:34.956Z,65.94
2022-09-09T09:22:34.982Z,65.45
2022-09-09T09:23:34.940Z,65.98
2022-09-09T09:24:34.927Z,66.11
2022-09-09T09:25:35.923Z,65.71
2022-09-09T09:26:34.916Z,65.64
2022-09-09T09:27:34.946Z,65.84
2022-09-09T09:28:35.902Z,66.87
2022-09-09T09:29:41.821Z,67.03
2022-09-09T09:30:35.887Z,66.50
2022-09-09T09:31:34.882Z,65.61
2022-09-09T09:32:34.901Z,65.01
2022-09-09T09:33:34.870Z,66.50
2022-09-09T09:34:34.859Z,66.01
2022-09-09T09:35:39.998Z,64.06
2022-09-09T09:36:36.842Z,64.78
2022-09-09T09:37:34.948Z,66.31
2022-09-09T09:40:36.815Z,64.39
2022-09-09T09:41:34.804Z,63.92
2022-09-09T09:42:34.823Z,62.54
2022-09-09T09:43:34.805Z,62.29
2022-09-09T09:44:34.779Z,60.64
2022-09-09T09:45:34.789Z,60.41
2022-09-09T09:46:34.799Z,58.90
2022-09-09T09:47:34.784Z,58.87
2022-09-09T09:48:34.803Z,59.44
2022-09-09T09:49:34.743Z,59.44
2022-09-09T09:50:34.762Z,59.04
2022-09-09T09:51:34.727Z,57.75
2022-09-09T09:52:34.745Z,57.88
2022-09-09T09:53:34.783Z,58.77
2022-09-09T09:54:34.705Z,57.41
2022-09-09T09:55:34.699Z,59.22
2022-09-09T09:56:34.693Z,58.98
2022-09-09T09:57:34.750Z,60.67
2022-09-09T09:58:34.740Z,60.43
2022-09-09T09:59:41.854Z,60.50
2022-09-09T10:00:36.677Z,59.63
2022-09-09T10:01:34.707Z,60.78
2022-09-09T10:02:34.696Z,60.75
2022-09-09T10:03:34.637Z,60.13
2022-09-09T10:04:34.663Z,60.83
2022-09-09T10:05:36.197Z,60.70
2022-09-09T10:06:35.720Z,60.40
2022-09-09T10:07:34.638Z,60.70
2022-09-09T10:08:35.491Z,60.30
2022-09-09T10:09:34.607Z,59.61
2022-09-09T10:10:34.620Z,59.31
2022-09-09T10:11:34.575Z,59.35
2022-09-09T10:12:34.595Z,59.15
2022-09-09T10:13:34.569Z,57.27
2022-09-09T10:14:34.558Z,58.16
2022-09-09T10:15:34.598Z,58.26
2022-09-09T10:16:34.550Z,57.76
2022-09-09T10:17:34.563Z,57.97
2022-09-09T10:18:34.595Z,58.09
2022-09-09T10:19:34.602Z,58.29
2022-09-09T10:20:34.508Z,58.39
2022-09-09T10:21:34.508Z,58.81
2022-09-09T10:22:34.521Z,59.51
2022-09-09T10:23:34.488Z,60.40
2022-09-09T10:24:34.527Z,60.50
2022-09-09T10:25:34.474Z,58.81
2022-09-09T10:26:34.456Z,60.72
2022-09-09T10:27:35.486Z,60.40
2022-09-09T10:28:34.515Z,58.91
2022-09-09T10:29:35.440Z,59.31
2022-09-09T10:30:34.531Z,59.21
2022-09-09T10:31:34.425Z,60.27
2022-09-09T10:32:34.444Z,59.55
2022-09-09T10:33:34.573Z,59.35
2022-09-09T10:34:34.404Z,58.75
2022-09-09T10:35:34.436Z,58.86
2022-09-09T10:36:34.427Z,58.29
2022-09-09T10:37:34.407Z,59.58
2022-09-09T10:38:34.373Z,58.84
2022-09-09T10:39:36.837Z,59.69
2022-09-09T10:40:34.357Z,60.82
2022-09-09T10:41:34.352Z,60.64
2022-09-09T10:42:34.392Z,61.96
2022-09-09T10:43:34.399Z,62.37
2022-09-09T10:44:34.329Z,62.07
2022-09-09T10:45:34.321Z,62.49
2022-09-09T10:46:34.355Z,61.99
2022-09-09T10:47:34.342Z,61.69
2022-09-09T10:48:34.301Z,62.13
2022-09-09T10:49:34.294Z,62.23
2022-09-09T10:51:00.065Z,62.55
2022-09-09T10:51:36.278Z,62.55
2022-09-09T10:52:34.302Z,63.55
2022-09-09T10:53:34.291Z,63.65
2022-09-09T10:54:34.255Z,62.95
2022-09-09T10:55:34.253Z,63.35
2022-09-09T10:56:34.241Z,64.45
2022-09-09T10:57:34.254Z,63.55
2022-09-09T10:58:34.249Z,63.02
2022-09-09T10:59:34.215Z,62.65
2022-09-09T11:00:34.211Z,63.95
2022-09-09T11:01:34.472Z,63.52
2022-09-09T11:02:34.222Z,63.29
2022-09-09T11:03:34.267Z,62.82
2022-09-09T11:04:34.185Z,62.82
2022-09-09T11:05:34.191Z,62.02
2022-09-09T11:06:34.235Z,61.96
2022-09-09T11:07:34.376Z,62.68
2022-09-09T11:08:34.276Z,63.88
2022-09-09T11:09:34.285Z,64.31
2022-09-09T11:10:35.182Z,64.01
2022-09-09T11:11:34.127Z,63.71
2022-09-09T11:12:34.120Z,63.11
2022-09-09T11:13:34.135Z,63.94
2022-09-09T11:14:37.343Z,64.04
2022-09-09T11:15:35.109Z,63.74
2022-09-09T11:16:34.166Z,64.57
2022-09-09T11:17:34.076Z,64.74
2022-09-09T11:18:34.112Z,65.94
2022-09-09T11:19:34.068Z,64.77
2022-09-09T11:20:34.077Z,65.23
2022-09-09T11:21:34.089Z,65.14
2022-09-09T11:22:34.044Z,64.94
2022-09-09T11:23:36.001Z,64.24
2022-09-09T11:24:34.024Z,64.07
2022-09-09T11:25:34.052Z,64.64
2022-09-09T11:26:34.002Z,64.97
2022-09-09T11:27:34.025Z,63.57
2022-09-09T11:28:34.067Z,64.94
2022-09-09T11:29:33.979Z,65.53
2022-09-09T11:30:57.229Z,64.07
2022-09-09T11:31:35.982Z,64.64
2022-09-09T11:32:33.958Z,64.44
2022-09-09T11:33:33.973Z,65.04
2022-09-09T11:34:34.479Z,64.24
2022-09-09T11:35:33.929Z,64.11
2022-09-09T11:36:34.056Z,64.67
2022-09-09T11:37:33.913Z,63.25
2022-09-09T11:38:33.928Z,62.35
2022-09-09T11:39:33.979Z,63.22
2022-09-09T11:40:33.888Z,61.90
2022-09-09T11:41:33.886Z,60.38
2022-09-09T11:42:33.933Z,59.35
2022-09-09T11:43:33.898Z,60.22
2022-09-09T11:44:33.931Z,59.42
2022-09-09T11:45:33.856Z,59.00
2022-09-09T11:46:33.955Z,57.28
2022-09-09T11:47:33.842Z,57.70
2022-09-09T11:48:33.937Z,57.14
2022-09-09T11:49:33.924Z,57.11
2022-09-09T11:50:33.825Z,57.34
2022-09-09T11:51:34.806Z,56.44
2022-09-09T11:52:33.798Z,56.54
2022-09-09T11:53:33.813Z,56.17
2022-09-09T11:54:33.856Z,55.38
2022-09-09T11:55:33.777Z,54.48
2022-09-09T11:56:33.784Z,55.30
2022-09-09T11:57:33.765Z,55.82
2022-09-09T11:58:33.851Z,55.95
2022-09-09T11:59:33.771Z,54.96
2022-09-09T12:00:33.774Z,56.15
2022-09-09T12:01:33.789Z,56.45
2022-09-09T12:02:33.756Z,55.16
2022-09-09T12:03:33.732Z,56.48
2022-09-09T12:04:33.786Z,57.07
2022-09-09T12:05:33.698Z,56.95
2022-09-09T12:06:34.531Z,55.55
2022-09-09T12:07:33.681Z,54.93
2022-09-09T12:08:33.757Z,55.82
2022-09-09T12:09:33.662Z,54.13
2022-09-09T12:10:33.672Z,54.33
2022-09-09T12:11:33.649Z,54.96
2022-09-09T12:12:33.636Z,54.75
2022-09-09T12:13:33.656Z,55.30
2022-09-09T12:14:33.624Z,56.70
2022-09-09T12:15:33.608Z,54.38
2022-09-09T12:16:33.668Z,55.27
2022-09-09T12:17:33.596Z,54.25
2022-09-09T12:18:33.676Z,53.36
2022-09-09T12:19:33.616Z,54.46
2022-09-09T12:20:33.572Z,55.35
2022-09-09T12:21:34.537Z,53.86
2022-09-09T12:22:33.574Z,54.08
2022-09-09T12:23:33.576Z,55.60
2022-09-09T12:24:33.571Z,55.26
2022-09-09T12:25:33.534Z,55.18
2022-09-09T12:26:33.605Z,56.27
2022-09-09T12:27:33.524Z,56.87
2022-09-09T12:28:33.509Z,56.27
2022-09-09T12:29:33.529Z,56.18
2022-09-09T12:30:33.520Z,56.87
2022-09-09T12:31:33.565Z,56.98
2022-09-09T12:32:33.480Z,56.21
2022-09-09T12:33:33.540Z,56.90
2022-09-09T12:34:33.518Z,56.90
2022-09-09T12:35:33.451Z,56.68
2022-09-09T12:36:33.447Z,55.88
2022-09-09T12:37:33.438Z,56.57
2022-09-09T12:38:33.471Z,57.07
2022-09-09T12:39:33.501Z,56.48
2022-09-09T12:40:33.419Z,57.28
2022-09-09T12:41:33.407Z,56.90
2022-09-09T12:42:34.501Z,57.37
2022-09-09T12:43:33.454Z,56.98
2022-09-09T12:44:33.409Z,56.55
2022-09-09T12:45:33.376Z,55.16
2022-09-09T12:46:33.374Z,56.87
2022-09-09T12:47:33.370Z,56.57
2022-09-09T12:48:33.447Z,56.87
2022-09-09T12:49:33.344Z,56.57
2022-09-09T12:50:33.339Z,57.35
2022-09-09T12:51:33.341Z,56.65
2022-09-09T12:52:33.324Z,56.12
2022-09-09T12:53:33.333Z,56.42
2022-09-09T12:54:33.318Z,56.62